sensor_id;sensor_type;location;lat;lon;timestamp;pressure;altitude;pressure_sealevel;temperature;humidity
16194;BME280;8204;53.582;10.080;2024-03-02T00:00:21;100121.94;;;12.53;100.00
16194;BME280;8204;53.582;10.080;2024-03-02T00:02:48;100117.06;;;12.50;100.00
16194;BME280;8204;53.582;10.080;2024-03-02T00:05:16;100118.06;;;12.49;100.00
16194;BME280;8204;53.582;10.080;2024-03-02T00:07:44;100111.16;;;12.48;100.00
16194;BME280;8204;53.582;10.080;2024-03-02T00:10:14;100115.78;;;12.46;100.00
16194;BME280;8204;53.582;10.080;2024-03-02T00:12:42;100107.09;;;12.46;100.00
16194;BME280;8204;53.582;10.080;2024-03-02T00:18:00;100101.41;;;12.42;100.00
16194;BME280;8204;53.582;10.080;2024-03-02T00:20:26;100092.69;;;12.42;100.00
16194;BME280;8204;53.582;10.080;2024-03-02T00:23:05;100094.91;;;12.38;100.00
16194;BME280;8204;53.582;10.080;2024-03-02T00:25:42;100083.75;;;12.37;100.00
16194;BME280;8204;53.582;10.080;2024-03-02T00:28:32;100076.06;;;12.35;100.00
16194;BME280;8204;53.582;10.080;2024-03-02T00:31:07;100067.75;;;12.32;100.00
16194;BME280;8204;53.582;10.080;2024-03-02T00:33:49;100062.66;;;12.30;100.00
16194;BME280;8204;53.582;10.080;2024-03-02T00:36:22;100058.59;;;12.28;100.00
16194;BME280;8204;53.582;10.080;2024-03-02T00:38:53;100064.03;;;12.26;100.00
16194;BME280;8204;53.582;10.080;2024-03-02T00:41:24;100052.09;;;12.24;100.00
16194;BME280;8204;53.582;10.080;2024-03-02T00:44:05;100050.47;;;12.23;100.00
16194;BME280;8204;53.582;10.080;2024-03-02T00:46:42;100047.19;;;12.21;100.00
16194;BME280;8204;53.582;10.080;2024-03-02T00:49:18;100042.94;;;12.20;100.00
16194;BME280;8204;53.582;10.080;2024-03-02T00:51:47;100043.97;;;12.19;100.00
16194;BME280;8204;53.582;10.080;2024-03-02T00:54:25;100038.06;;;12.17;100.00
16194;BME280;8204;53.582;10.080;2024-03-02T00:56:51;100041.34;;;12.19;100.00
16194;BME280;8204;53.582;10.080;2024-03-02T00:59:17;100038.06;;;12.17;100.00
16194;BME280;8204;53.582;10.080;2024-03-02T01:01:43;100038.25;;;12.15;100.00
16194;BME280;8204;53.582;10.080;2024-03-02T01:04:09;100032.19;;;12.15;100.00
16194;BME280;8204;53.582;10.080;2024-03-02T01:06:35;100039.44;;;12.13;100.00
16194;BME280;8204;53.582;10.080;2024-03-02T01:09:01;100052.56;;;12.13;100.00
16194;BME280;8204;53.582;10.080;2024-03-02T01:11:28;100041.44;;;12.11;100.00
16194;BME280;8204;53.582;10.080;2024-03-02T01:13:55;100041.44;;;12.11;100.00
16194;BME280;8204;53.582;10.080;2024-03-02T01:16:21;100041.63;;;12.09;100.00
16194;BME280;8204;53.582;10.080;2024-03-02T01:18:46;100048.69;;;12.09;100.00
16194;BME280;8204;53.582;10.080;2024-03-02T01:21:19;100048.69;;;12.09;100.00
16194;BME280;8204;53.582;10.080;2024-03-02T01:23:50;100045.41;;;12.07;100.00
16194;BME280;8204;53.582;10.080;2024-03-02T01:26:15;100053.28;;;12.07;100.00
16194;BME280;8204;53.582;10.080;2024-03-02T01:28:41;100043.81;;;12.06;100.00
16194;BME280;8204;53.582;10.080;2024-03-02T01:31:07;100053.50;;;12.05;100.00
16194;BME280;8204;53.582;10.080;2024-03-02T01:33:32;100040.56;;;12.04;100.00
16194;BME280;8204;53.582;10.080;2024-03-02T01:35:58;100037.94;;;12.04;100.00
16194;BME280;8204;53.582;10.080;2024-03-02T01:38:23;100035.66;;;12.01;100.00
16194;BME280;8204;53.582;10.080;2024-03-02T01:40:49;100029.59;;;12.00;100.00
16194;BME280;8204;53.582;10.080;2024-03-02T01:43:14;100026.78;;;12.02;100.00
16194;BME280;8204;53.582;10.080;2024-03-02T01:45:41;100030.41;;;12.01;100.00
16194;BME280;8204;53.582;10.080;2024-03-02T01:48:07;100025.16;;;12.01;100.00
16194;BME280;8204;53.582;10.080;2024-03-02T01:50:33;100025.16;;;12.01;100.00
16194;BME280;8204;53.582;10.080;2024-03-02T01:52:59;100027.78;;;12.01;100.00
16194;BME280;8204;53.582;10.080;2024-03-02T01:55:25;100031.41;;;12.00;100.00
16194;BME280;8204;53.582;10.080;2024-03-02T01:57:51;100027.16;;;11.99;100.00
16194;BME280;8204;53.582;10.080;2024-03-02T02:00:19;100026.34;;;11.98;100.00
16194;BME280;8204;53.582;10.080;2024-03-02T02:02:46;100023.72;;;11.98;100.00
16194;BME280;8204;53.582;10.080;2024-03-02T02:05:12;100025.53;;;11.98;100.00
16194;BME280;8204;53.582;10.080;2024-03-02T02:07:38;100025.53;;;11.98;100.00
16194;BME280;8204;53.582;10.080;2024-03-02T02:10:04;100023.91;;;11.97;100.00
16194;BME280;8204;53.582;10.080;2024-03-02T02:12:29;100019.66;;;11.96;100.00
16194;BME280;8204;53.582;10.080;2024-03-02T02:14:55;100020.66;;;11.95;100.00
16194;BME280;8204;53.582;10.080;2024-03-02T02:17:21;100012.16;;;11.93;100.00
16194;BME280;8204;53.582;10.080;2024-03-02T02:19:46;100008.06;;;11.90;100.00
16194;BME280;8204;53.582;10.080;2024-03-02T02:22:12;100005.28;;;11.92;100.00
16194;BME280;8204;53.582;10.080;2024-03-02T02:24:41;100004.63;;;11.90;100.00
16194;BME280;8204;53.582;10.080;2024-03-02T02:27:07;100000.38;;;11.89;100.00
16194;BME280;8204;53.582;10.080;2024-03-02T02:29:33;99992.50;;;11.89;100.00
16194;BME280;8204;53.582;10.080;2024-03-02T02:31:59;99994.34;;;11.88;100.00
16194;BME280;8204;53.582;10.080;2024-03-02T02:34:25;99985.63;;;11.88;100.00
16194;BME280;8204;53.582;10.080;2024-03-02T02:36:51;99980.56;;;11.86;100.00
16194;BME280;8204;53.582;10.080;2024-03-02T02:39:18;99978.75;;;11.87;100.00
16194;BME280;8204;53.582;10.080;2024-03-02T02:41:46;99974.53;;;11.86;100.00
16194;BME280;8204;53.582;10.080;2024-03-02T02:44:12;99975.50;;;11.85;100.00
16194;BME280;8204;53.582;10.080;2024-03-02T02:46:39;99967.81;;;11.83;100.00
16194;BME280;8204;53.582;10.080;2024-03-02T02:49:04;99964.38;;;11.83;100.00
16194;BME280;8204;53.582;10.080;2024-03-02T02:51:30;99963.38;;;11.84;100.00
16194;BME280;8204;53.582;10.080;2024-03-02T02:53:56;99964.38;;;11.83;100.00
16194;BME280;8204;53.582;10.080;2024-03-02T02:56:21;99957.50;;;11.82;100.00
16194;BME280;8204;53.582;10.080;2024-03-02T02:58:47;99962.94;;;11.80;100.00
16194;BME280;8204;53.582;10.080;2024-03-02T03:01:13;99948.19;;;11.79;100.00
16194;BME280;8204;53.582;10.080;2024-03-02T03:03:38;99950.00;;;11.79;100.00
16194;BME280;8204;53.582;10.080;2024-03-02T03:06:04;99953.63;;;11.78;100.00
16194;BME280;8204;53.582;10.080;2024-03-02T03:08:30;99952.00;;;11.77;100.00
16194;BME280;8204;53.582;10.080;2024-03-02T03:10:56;99948.56;;;11.76;100.00
16194;BME280;8204;53.582;10.080;2024-03-02T03:13:22;99957.44;;;11.75;100.00
16194;BME280;8204;53.582;10.080;2024-03-02T03:15:47;99961.06;;;11.74;100.00
16194;BME280;8204;53.582;10.080;2024-03-02T03:18:13;99962.03;;;11.73;100.00
16194;BME280;8204;53.582;10.080;2024-03-02T03:20:38;99957.78;;;11.72;100.00
16194;BME280;8204;53.582;10.080;2024-03-02T03:23:04;99965.84;;;11.71;100.00
16194;BME280;8204;53.582;10.080;2024-03-02T03:25:30;99962.41;;;11.70;100.00
16194;BME280;8204;53.582;10.080;2024-03-02T03:27:56;99961.78;;;11.68;100.00
16194;BME280;8204;53.582;10.080;2024-03-02T03:30:21;99961.78;;;11.68;100.00
16194;BME280;8204;53.582;10.080;2024-03-02T03:32:47;99956.69;;;11.67;100.00
16194;BME280;8204;53.582;10.080;2024-03-02T03:35:13;99962.97;;;11.66;100.00
16194;BME280;8204;53.582;10.080;2024-03-02T03:37:40;99958.09;;;11.63;100.00
16194;BME280;8204;53.582;10.080;2024-03-02T03:40:06;99961.34;;;11.65;100.00
16194;BME280;8204;53.582;10.080;2024-03-02T03:42:36;99965.75;;;11.64;100.00
16194;BME280;8204;53.582;10.080;2024-03-02T03:45:03;99967.59;;;11.64;100.00
16194;BME280;8204;53.582;10.080;2024-03-02T03:47:28;99965.97;;;11.63;100.00
16194;BME280;8204;53.582;10.080;2024-03-02T03:49:54;99972.84;;;11.64;100.00
16194;BME280;8204;53.582;10.080;2024-03-02T03:52:19;99970.03;;;11.65;100.00
16194;BME280;8204;53.582;10.080;2024-03-02T03:54:46;99969.22;;;11.65;100.00
16194;BME280;8204;53.582;10.080;2024-03-02T03:57:12;99967.59;;;11.64;100.00
16194;BME280;8204;53.582;10.080;2024-03-02T03:59:37;99969.22;;;11.65;100.00
16194;BME280;8204;53.582;10.080;2024-03-02T04:02:03;99957.72;;;11.66;100.00
16194;BME280;8204;53.582;10.080;2024-03-02T04:04:29;99966.59;;;11.65;100.00
16194;BME280;8204;53.582;10.080;2024-03-02T04:06:55;99963.97;;;11.65;100.00
16194;BME280;8204;53.582;10.080;2024-03-02T04:09:20;99962.34;;;11.64;100.00
16194;BME280;8204;53.582;10.080;2024-03-02T04:11:46;99972.03;;;11.64;100.00
16194;BME280;8204;53.582;10.080;2024-03-02T04:14:11;99972.19;;;11.62;100.00
16194;BME280;8204;53.582;10.080;2024-03-02T04:16:38;99973.81;;;11.63;100.00
16194;BME280;8204;53.582;10.080;2024-03-02T04:19:04;99966.94;;;11.62;100.00
16194;BME280;8204;53.582;10.080;2024-03-02T04:21:30;99960.91;;;11.62;100.00
16194;BME280;8204;53.582;10.080;2024-03-02T04:23:56;99968.59;;;11.63;100.00
16194;BME280;8204;53.582;10.080;2024-03-02T04:26:24;99970.56;;;11.61;100.00
16194;BME280;8204;53.582;10.080;2024-03-02T04:28:51;99970.56;;;11.61;100.00
16194;BME280;8204;53.582;10.080;2024-03-02T04:31:16;99975.81;;;11.61;100.00
16194;BME280;8204;53.582;10.080;2024-03-02T04:33:42;99972.59;;;11.59;100.00
16194;BME280;8204;53.582;10.080;2024-03-02T04:36:08;99978.81;;;11.58;100.00
16194;BME280;8204;53.582;10.080;2024-03-02T04:38:36;99985.06;;;11.57;100.00
16194;BME280;8204;53.582;10.080;2024-03-02T04:41:03;99985.06;;;11.57;100.00
16194;BME280;8204;53.582;10.080;2024-03-02T04:43:28;99984.88;;;11.59;100.00
16194;BME280;8204;53.582;10.080;2024-03-02T04:45:53;99973.56;;;11.58;100.00
16194;BME280;8204;53.582;10.080;2024-03-02T04:48:19;99983.44;;;11.56;100.00
16194;BME280;8204;53.582;10.080;2024-03-02T04:50:44;99990.94;;;11.59;100.00
16194;BME280;8204;53.582;10.080;2024-03-02T04:53:10;99992.94;;;11.57;100.00
16194;BME280;8204;53.582;10.080;2024-03-02T04:55:35;99994.56;;;11.58;100.00
16194;BME280;8204;53.582;10.080;2024-03-02T04:58:21;99984.25;;;11.57;100.00
16194;BME280;8204;53.582;10.080;2024-03-02T05:00:46;99988.69;;;11.56;100.00
16194;BME280;8204;53.582;10.080;2024-03-02T05:03:12;99997.19;;;11.58;100.00
16194;BME280;8204;53.582;10.080;2024-03-02T05:05:39;99990.50;;;11.56;100.00
16194;BME280;8204;53.582;10.080;2024-03-02T05:08:04;100000.16;;;11.55;100.00
16194;BME280;8204;53.582;10.080;2024-03-02T05:10:30;100006.59;;;11.53;100.00
16194;BME280;8204;53.582;10.080;2024-03-02T05:12:56;100012.03;;;11.51;100.00
16194;BME280;8204;53.582;10.080;2024-03-02T05:15:25;100001.16;;;11.54;100.00
16194;BME280;8204;53.582;10.080;2024-03-02T05:17:51;100008.41;;;11.52;100.00
16194;BME280;8204;53.582;10.080;2024-03-02T05:20:17;100014.47;;;11.53;100.00
16194;BME280;8204;53.582;10.080;2024-03-02T05:22:43;100014.66;;;11.51;100.00
16194;BME280;8204;53.582;10.080;2024-03-02T05:25:08;100010.03;;;11.53;100.00
16194;BME280;8204;53.582;10.080;2024-03-02T05:27:35;100007.59;;;11.52;100.00
16194;BME280;8204;53.582;10.080;2024-03-02T05:30:01;100008.41;;;11.52;100.00
16194;BME280;8204;53.582;10.080;2024-03-02T05:32:27;100003.31;;;11.51;100.00
16194;BME280;8204;53.582;10.080;2024-03-02T05:34:53;100018.91;;;11.52;100.00
16194;BME280;8204;53.582;10.080;2024-03-02T05:37:19;100018.22;;;11.50;100.00
16194;BME280;8204;53.582;10.080;2024-03-02T05:39:45;100006.78;;;11.51;100.00
16194;BME280;8204;53.582;10.080;2024-03-02T05:42:10;100009.41;;;11.51;100.00
16194;BME280;8204;53.582;10.080;2024-03-02T05:44:36;100018.06;;;11.52;100.00
16194;BME280;8204;53.582;10.080;2024-03-02T05:47:02;100024.16;;;11.52;100.00
16194;BME280;8204;53.582;10.080;2024-03-02T05:49:28;100024.16;;;11.52;100.00
16194;BME280;8204;53.582;10.080;2024-03-02T05:51:54;100023.31;;;11.52;100.00
16194;BME280;8204;53.582;10.080;2024-03-02T05:54:19;100018.91;;;11.52;100.00
16194;BME280;8204;53.582;10.080;2024-03-02T05:56:45;100019.22;;;11.49;100.00
16194;BME280;8204;53.582;10.080;2024-03-02T05:59:10;100008.72;;;11.49;100.00
16194;BME280;8204;53.582;10.080;2024-03-02T06:01:39;100012.34;;;11.48;100.00
16194;BME280;8204;53.582;10.080;2024-03-02T06:04:05;100018.63;;;11.47;100.00
16194;BME280;8204;53.582;10.080;2024-03-02T06:06:30;100021.41;;;11.46;100.00
16194;BME280;8204;53.582;10.080;2024-03-02T06:08:59;100022.38;;;11.45;100.00
16194;BME280;8204;53.582;10.080;2024-03-02T06:11:24;100018.16;;;11.44;100.00
16194;BME280;8204;53.582;10.080;2024-03-02T06:13:50;100026.84;;;11.44;100.00
16194;BME280;8204;53.582;10.080;2024-03-02T06:16:15;100032.06;;;11.44;100.00
16194;BME280;8204;53.582;10.080;2024-03-02T06:18:41;100029.47;;;11.44;100.00
16194;BME280;8204;53.582;10.080;2024-03-02T06:21:06;100031.44;;;11.42;100.00
16194;BME280;8204;53.582;10.080;2024-03-02T06:23:32;100028.81;;;11.42;100.00
16194;BME280;8204;53.582;10.080;2024-03-02T06:25:58;100028.81;;;11.42;100.00
16194;BME280;8204;53.582;10.080;2024-03-02T06:28:23;100041.13;;;11.42;100.00
16194;BME280;8204;53.582;10.080;2024-03-02T06:30:48;100037.88;;;11.40;100.00
16194;BME280;8204;53.582;10.080;2024-03-02T06:33:14;100033.44;;;11.40;100.00
16194;BME280;8204;53.582;10.080;2024-03-02T06:35:40;100035.25;;;11.40;100.00
16194;BME280;8204;53.582;10.080;2024-03-02T06:38:06;100039.69;;;11.39;100.00
16194;BME280;8204;53.582;10.080;2024-03-02T06:40:31;100036.41;;;11.37;100.00
16194;BME280;8204;53.582;10.080;2024-03-02T06:42:57;100033.78;;;11.37;100.00
16194;BME280;8204;53.582;10.080;2024-03-02T06:45:22;100034.78;;;11.36;100.00
16194;BME280;8204;53.582;10.080;2024-03-02T06:47:48;100036.41;;;11.37;100.00
16194;BME280;8204;53.582;10.080;2024-03-02T06:50:14;100040.88;;;11.37;100.00
16194;BME280;8204;53.582;10.080;2024-03-02T06:52:40;100038.41;;;11.35;100.00
16194;BME280;8204;53.582;10.080;2024-03-02T06:55:06;100032.34;;;11.35;100.00
16194;BME280;8204;53.582;10.080;2024-03-02T06:57:32;100036.59;;;11.36;100.00
16194;BME280;8204;53.582;10.080;2024-03-02T06:59:57;100046.09;;;11.37;100.00
16194;BME280;8204;53.582;10.080;2024-03-02T07:02:24;100035.78;;;11.35;100.00
16194;BME280;8204;53.582;10.080;2024-03-02T07:04:52;100030.38;;;11.37;100.00
16194;BME280;8204;53.582;10.080;2024-03-02T07:07:18;100033.97;;;11.36;100.00
16194;BME280;8204;53.582;10.080;2024-03-02T07:09:43;100037.06;;;11.39;100.00
16194;BME280;8204;53.582;10.080;2024-03-02T07:12:08;100034.59;;;11.38;100.00
16194;BME280;8204;53.582;10.080;2024-03-02T07:14:35;100037.22;;;11.38;100.00
16194;BME280;8204;53.582;10.080;2024-03-02T07:17:22;100039.69;;;11.39;100.00
16194;BME280;8204;53.582;10.080;2024-03-02T07:19:48;100045.72;;;11.40;100.00
16194;BME280;8204;53.582;10.080;2024-03-02T07:22:13;100062.31;;;11.40;100.00
16194;BME280;8204;53.582;10.080;2024-03-02T07:24:43;100057.66;;;11.42;100.00
16194;BME280;8204;53.582;10.080;2024-03-02T07:27:09;100057.50;;;11.44;100.00
16194;BME280;8204;53.582;10.080;2024-03-02T07:29:34;100066.81;;;11.46;100.00
16194;BME280;8204;53.582;10.080;2024-03-02T07:32:00;100068.28;;;11.49;100.00
16194;BME280;8204;53.582;10.080;2024-03-02T07:34:25;100074.81;;;11.53;100.00
16194;BME280;8204;53.582;10.080;2024-03-02T07:36:52;100068.38;;;11.55;100.00
16194;BME280;8204;53.582;10.080;2024-03-02T07:39:19;100073.91;;;11.60;100.00
16194;BME280;8204;53.582;10.080;2024-03-02T07:41:45;100083.41;;;11.61;100.00
16194;BME280;8204;53.582;10.080;2024-03-02T07:44:11;100090.13;;;11.64;100.00
16194;BME280;8204;53.582;10.080;2024-03-02T07:46:40;100088.94;;;11.66;100.00
16194;BME280;8204;53.582;10.080;2024-03-02T07:49:06;100086.59;;;11.71;100.00
16194;BME280;8204;53.582;10.080;2024-03-02T07:51:32;100089.84;;;11.73;100.00
16194;BME280;8204;53.582;10.080;2024-03-02T07:53:57;100087.84;;;11.75;100.00
16194;BME280;8204;53.582;10.080;2024-03-02T07:56:23;100090.09;;;11.78;100.00
16194;BME280;8204;53.582;10.080;2024-03-02T07:58:49;100087.09;;;11.81;100.00
16194;BME280;8204;53.582;10.080;2024-03-02T08:01:15;100085.75;;;11.85;100.00
16194;BME280;8204;53.582;10.080;2024-03-02T08:03:41;100084.38;;;11.89;100.00
16194;BME280;8204;53.582;10.080;2024-03-02T08:06:06;100097.16;;;11.92;100.00
16194;BME280;8204;53.582;10.080;2024-03-02T08:08:32;100106.69;;;11.93;100.00
16194;BME280;8204;53.582;10.080;2024-03-02T08:10:58;100125.84;;;11.93;100.00
16194;BME280;8204;53.582;10.080;2024-03-02T08:13:24;100114.91;;;11.90;100.00
16194;BME280;8204;53.582;10.080;2024-03-02T08:15:49;100117.19;;;11.93;100.00
16194;BME280;8204;53.582;10.080;2024-03-02T08:18:15;100123.41;;;11.92;100.00
16194;BME280;8204;53.582;10.080;2024-03-02T08:20:41;100122.69;;;11.98;100.00
16194;BME280;8204;53.582;10.080;2024-03-02T08:23:06;100130.03;;;12.02;100.00
16194;BME280;8204;53.582;10.080;2024-03-02T08:25:33;100129.00;;;12.03;100.00
16194;BME280;8204;53.582;10.080;2024-03-02T08:27:58;100134.88;;;12.05;100.00
16194;BME280;8204;53.582;10.080;2024-03-02T08:30:24;100136.59;;;12.13;100.00
16194;BME280;8204;53.582;10.080;2024-03-02T08:32:50;100143.66;;;12.12;100.00
16194;BME280;8204;53.582;10.080;2024-03-02T08:35:15;100144.13;;;12.16;100.00
16194;BME280;8204;53.582;10.080;2024-03-02T08:37:42;100145.38;;;12.20;100.00
16194;BME280;8204;53.582;10.080;2024-03-02T08:40:09;100145.56;;;12.18;100.00
16194;BME280;8204;53.582;10.080;2024-03-02T08:42:34;100143.38;;;12.22;100.00
16194;BME280;8204;53.582;10.080;2024-03-02T08:45:00;100145.03;;;12.23;100.00
16194;BME280;8204;53.582;10.080;2024-03-02T08:47:27;100145.47;;;12.26;100.00
16194;BME280;8204;53.582;10.080;2024-03-02T08:49:52;100145.09;;;12.29;100.00
16194;BME280;8204;53.582;10.080;2024-03-02T08:52:18;100151.97;;;12.30;100.00
16194;BME280;8204;53.582;10.080;2024-03-02T08:54:43;100139.28;;;12.34;100.00
16194;BME280;8204;53.582;10.080;2024-03-02T08:57:09;100140.91;;;12.35;100.00
16194;BME280;8204;53.582;10.080;2024-03-02T08:59:34;100144.81;;;12.38;100.00
16194;BME280;8204;53.582;10.080;2024-03-02T09:02:00;100145.25;;;12.42;100.00
16194;BME280;8204;53.582;10.080;2024-03-02T09:04:26;100148.31;;;12.45;100.00
16194;BME280;8204;53.582;10.080;2024-03-02T09:06:52;100153.41;;;12.47;100.00
16194;BME280;8204;53.582;10.080;2024-03-02T09:09:18;100144.34;;;12.49;100.00
16194;BME280;8204;53.582;10.080;2024-03-02T09:11:46;100166.00;;;12.51;100.00
16194;BME280;8204;53.582;10.080;2024-03-02T09:14:12;100167.44;;;12.54;100.00
16194;BME280;8204;53.582;10.080;2024-03-02T09:16:38;100165.63;;;12.54;100.00
16194;BME280;8204;53.582;10.080;2024-03-02T09:19:04;100160.63;;;12.59;100.00
16194;BME280;8204;53.582;10.080;2024-03-02T09:21:29;100157.44;;;12.64;100.00
16194;BME280;8204;53.582;10.080;2024-03-02T09:23:55;100151.81;;;12.67;100.00
16194;BME280;8204;53.582;10.080;2024-03-02T09:26:22;100162.19;;;12.75;100.00
16194;BME280;8204;53.582;10.080;2024-03-02T09:28:50;100164.09;;;12.81;100.00
16194;BME280;8204;53.582;10.080;2024-03-02T09:31:16;100167.44;;;12.89;100.00
16194;BME280;8204;53.582;10.080;2024-03-02T09:33:41;100173.31;;;12.91;100.00
16194;BME280;8204;53.582;10.080;2024-03-02T09:36:19;100173.22;;;12.99;100.00
16194;BME280;8204;53.582;10.080;2024-03-02T09:38:46;100176.47;;;13.01;100.00
16194;BME280;8204;53.582;10.080;2024-03-02T09:41:13;100179.34;;;13.06;100.00
16194;BME280;8204;53.582;10.080;2024-03-02T09:43:40;100172.72;;;13.10;100.00
16194;BME280;8204;53.582;10.080;2024-03-02T09:46:10;100178.84;;;13.17;100.00
16194;BME280;8204;53.582;10.080;2024-03-02T09:48:36;100187.38;;;13.19;100.00
16194;BME280;8204;53.582;10.080;2024-03-02T09:51:04;100182.53;;;13.22;100.00
16194;BME280;8204;53.582;10.080;2024-03-02T09:53:31;100188.25;;;13.26;100.00
16194;BME280;8204;53.582;10.080;2024-03-02T09:55:59;100176.94;;;13.32;100.00
16194;BME280;8204;53.582;10.080;2024-03-02T09:58:25;100175.38;;;13.37;100.00
16194;BME280;8204;53.582;10.080;2024-03-02T10:00:50;100193.25;;;13.42;100.00
16194;BME280;8204;53.582;10.080;2024-03-02T10:03:18;100189.03;;;13.47;100.00
16194;BME280;8204;53.582;10.080;2024-03-02T10:05:44;100183.75;;;13.47;100.00
16194;BME280;8204;53.582;10.080;2024-03-02T10:08:10;100186.47;;;13.54;100.00
16194;BME280;8204;53.582;10.080;2024-03-02T10:10:37;100188.97;;;13.62;100.00
16194;BME280;8204;53.582;10.080;2024-03-02T10:13:08;100191.44;;;13.70;100.00
16194;BME280;8204;53.582;10.080;2024-03-02T10:15:35;100189.63;;;13.70;100.00
16194;BME280;8204;53.582;10.080;2024-03-02T10:18:06;100193.72;;;13.79;100.00
16194;BME280;8204;53.582;10.080;2024-03-02T10:20:33;100198.03;;;13.86;100.00
16194;BME280;8204;53.582;10.080;2024-03-02T10:23:10;100201.09;;;13.90;100.00
16194;BME280;8204;53.582;10.080;2024-03-02T10:25:37;100197.50;;;13.97;100.00
16194;BME280;8204;53.582;10.080;2024-03-02T10:28:02;100209.13;;;14.09;100.00
16194;BME280;8204;53.582;10.080;2024-03-02T10:30:30;100207.78;;;14.20;100.00
16194;BME280;8204;53.582;10.080;2024-03-02T10:32:57;100213.13;;;14.26;100.00
16194;BME280;8204;53.582;10.080;2024-03-02T10:35:23;100202.81;;;14.38;100.00
16194;BME280;8204;53.582;10.080;2024-03-02T10:37:49;100204.09;;;14.48;100.00
16194;BME280;8204;53.582;10.080;2024-03-02T10:40:15;100205.75;;;14.56;100.00
16194;BME280;8204;53.582;10.080;2024-03-02T10:42:45;100207.03;;;14.66;100.00
16194;BME280;8204;53.582;10.080;2024-03-02T10:45:12;100207.44;;;14.76;100.00
16194;BME280;8204;53.582;10.080;2024-03-02T10:47:38;100214.56;;;14.82;100.00
16194;BME280;8204;53.582;10.080;2024-03-02T10:50:07;100217.00;;;14.83;100.00
16194;BME280;8204;53.582;10.080;2024-03-02T10:52:37;100221.69;;;14.88;100.00
16194;BME280;8204;53.582;10.080;2024-03-02T10:55:05;100229.84;;;14.93;100.00
16194;BME280;8204;53.582;10.080;2024-03-02T10:57:53;100226.41;;;14.99;100.00
16194;BME280;8204;53.582;10.080;2024-03-02T11:00:20;100232.91;;;15.03;100.00
16194;BME280;8204;53.582;10.080;2024-03-02T11:02:56;100234.94;;;15.07;100.00
16194;BME280;8204;53.582;10.080;2024-03-02T11:05:31;100231.09;;;15.16;100.00
16194;BME280;8204;53.582;10.080;2024-03-02T11:08:07;100242.69;;;15.22;100.00
16194;BME280;8204;53.582;10.080;2024-03-02T11:10:49;100239.47;;;15.26;100.00
16194;BME280;8204;53.582;10.080;2024-03-02T11:13:22;100242.13;;;15.32;100.00
16194;BME280;8204;53.582;10.080;2024-03-02T11:15:48;100249.25;;;15.45;100.00
16194;BME280;8204;53.582;10.080;2024-03-02T11:18:16;100250.28;;;15.50;100.00
16194;BME280;8204;53.582;10.080;2024-03-02T11:20:43;100244.78;;;15.52;100.00
16194;BME280;8204;53.582;10.080;2024-03-02T11:23:09;100250.69;;;15.54;100.00
16194;BME280;8204;53.582;10.080;2024-03-02T11:25:35;100240.94;;;15.54;100.00
16194;BME280;8204;53.582;10.080;2024-03-02T11:28:03;100249.88;;;15.60;100.00
16194;BME280;8204;53.582;10.080;2024-03-02T11:32:58;100254.16;;;15.67;100.00
16194;BME280;8204;53.582;10.080;2024-03-02T11:35:27;100253.53;;;15.72;100.00
16194;BME280;8204;53.582;10.080;2024-03-02T11:37:54;100253.13;;;15.75;100.00
16194;BME280;8204;53.582;10.080;2024-03-02T11:40:24;100255.16;;;15.79;100.00
16194;BME280;8204;53.582;10.080;2024-03-02T11:42:51;100251.50;;;15.80;100.00
16194;BME280;8204;53.582;10.080;2024-03-02T11:45:17;100264.91;;;15.85;100.00
16194;BME280;8204;53.582;10.080;2024-03-02T11:47:50;100263.69;;;15.88;100.00
16194;BME280;8204;53.582;10.080;2024-03-02T11:50:35;100268.59;;;15.91;100.00
16194;BME280;8204;53.582;10.080;2024-03-02T11:53:03;100258.81;;;15.91;100.00
16194;BME280;8204;53.582;10.080;2024-03-02T11:55:32;100268.38;;;15.92;100.00
16194;BME280;8204;53.582;10.080;2024-03-02T11:57:59;100265.13;;;15.90;100.00
16194;BME280;8204;53.582;10.080;2024-03-02T12:00:26;100255.16;;;15.92;100.00
16194;BME280;8204;53.582;10.080;2024-03-02T12:03:06;100256.78;;;15.93;100.00
16194;BME280;8204;53.582;10.080;2024-03-02T12:05:33;100266.34;;;15.94;100.00
16194;BME280;8204;53.582;10.080;2024-03-02T12:07:59;100269.38;;;15.91;100.00
16194;BME280;8204;53.582;10.080;2024-03-02T12:10:26;100268.38;;;15.92;100.00
16194;BME280;8204;53.582;10.080;2024-03-02T12:12:59;100255.78;;;15.94;100.00
16194;BME280;8204;53.582;10.080;2024-03-02T12:15:32;100261.28;;;15.93;100.00
16194;BME280;8204;53.582;10.080;2024-03-02T12:17:59;100261.84;;;15.95;100.00
16194;BME280;8204;53.582;10.080;2024-03-02T12:20:26;100254.97;;;15.94;100.00
16194;BME280;8204;53.582;10.080;2024-03-02T12:22:53;100262.69;;;15.95;100.00
16194;BME280;8204;53.582;10.080;2024-03-02T12:25:20;100264.72;;;15.93;100.00
16194;BME280;8204;53.582;10.080;2024-03-02T12:27:47;100255.16;;;15.99;100.00
16194;BME280;8204;53.582;10.080;2024-03-02T12:30:16;100257.00;;;16.05;100.00
16194;BME280;8204;53.582;10.080;2024-03-02T12:32:42;100258.19;;;16.08;100.00
16194;BME280;8204;53.582;10.080;2024-03-02T12:35:10;100259.59;;;16.11;100.00
16194;BME280;8204;53.582;10.080;2024-03-02T12:37:48;100251.28;;;16.14;100.00
16194;BME280;8204;53.582;10.080;2024-03-02T12:40:16;100251.47;;;16.19;100.00
16194;BME280;8204;53.582;10.080;2024-03-02T12:42:44;100251.06;;;16.22;100.00
16194;BME280;8204;53.582;10.080;2024-03-02T12:45:09;100255.94;;;16.25;100.00
16194;BME280;8204;53.582;10.080;2024-03-02T12:47:36;100256.75;;;16.25;100.00